Time;durP1;ratioP1;P1;durP2;ratioP2;P2;SDS_P1;SDS_P2;PMS_P1;PMS_P2;Temp;Humidity;BMP_temperature;BMP_pressure;BME280_temperature;BME280_humidity;BME280_pressure;Samples;Min_cycle;Max_cycle;Signal;HPM_P1;HPM_P2
2023/01/28 00:01:39;;;;;;;4.95;3.10;;;3.40;99.90;;;;;;4967848;28;20049;-75
2023/01/28 00:04:04;;;;;;;3.33;2.70;;;3.40;99.90;;;;;;4950464;28;20133;-75
2023/01/28 00:06:30;;;;;;;2.63;2.42;;;3.40;99.90;;;;;;4967689;28;20047;-75
2023/01/28 00:08:56;;;;;;;5.70;3.47;;;3.40;99.90;;;;;;4966614;28;20537;-75
2023/01/28 00:11:22;;;;;;;4.30;3.72;;;3.40;99.90;;;;;;4966626;28;20062;-75
2023/01/28 00:13:51;;;;;;;4.70;3.13;;;3.40;99.90;;;;;;4967861;28;20098;-75
2023/01/28 00:16:17;;;;;;;2.72;2.50;;;3.30;99.90;;;;;;4977154;28;20109;-75
2023/01/28 00:18:43;;;;;;;3.13;2.83;;;3.40;99.90;;;;;;4986887;28;20089;-75
2023/01/28 00:21:11;;;;;;;3.92;3.42;;;3.40;99.90;;;;;;4987101;28;20042;-75
2023/01/28 00:23:38;;;;;;;5.65;3.05;;;3.40;99.90;;;;;;4985753;28;20137;-75
2023/01/28 00:26:11;;;;;;;3.30;2.70;;;3.40;99.90;;;;;;4987028;28;20046;-75
2023/01/28 00:28:37;;;;;;;3.92;2.45;;;3.40;99.90;;;;;;4986975;28;20047;-75
2023/01/28 00:31:16;;;;;;;3.10;2.67;;;3.40;99.90;;;;;;4986924;28;20100;-75
2023/01/28 00:33:43;;;;;;;3.38;2.35;;;3.40;99.90;;;;;;4986635;28;20035;-75
2023/01/28 00:36:09;;;;;;;2.75;2.55;;;3.40;99.90;;;;;;4986882;28;20121;-75
2023/01/28 00:38:35;;;;;;;2.97;2.55;;;3.40;99.90;;;;;;4984326;28;20516;-74
2023/01/28 00:41:11;;;;;;;2.67;2.17;;;3.40;99.90;;;;;;4986893;28;20084;-75
2023/01/28 00:43:37;;;;;;;3.55;3.25;;;3.30;99.90;;;;;;4979839;28;20047;-74
2023/01/28 00:46:06;;;;;;;3.53;3.33;;;3.40;99.90;;;;;;4967653;28;20101;-75
2023/01/28 00:48:34;;;;;;;3.28;2.00;;;3.40;99.90;;;;;;4967108;28;20051;-75
2023/01/28 00:51:00;;;;;;;2.90;2.30;;;3.40;99.90;;;;;;4967450;28;20447;-75
2023/01/28 00:53:26;;;;;;;3.17;2.88;;;3.30;99.90;;;;;;4967142;28;20125;-75
2023/01/28 00:55:53;;;;;;;3.00;2.70;;;3.40;99.90;;;;;;4966626;28;20046;-75
2023/01/28 00:58:19;;;;;;;4.63;3.50;;;3.30;99.90;;;;;;4967606;28;20532;-75
2023/01/28 01:00:45;;;;;;;4.22;2.95;;;3.30;99.90;;;;;;4967070;28;20093;-74
2023/01/28 01:03:10;;;;;;;3.08;2.42;;;3.40;99.90;;;;;;4952399;28;20059;-75
2023/01/28 01:05:36;;;;;;;4.25;3.20;;;3.30;99.90;;;;;;4947651;28;20042;-75
2023/01/28 01:08:02;;;;;;;2.00;1.85;;;3.30;99.90;;;;;;4948116;28;20043;-75
2023/01/28 01:10:28;;;;;;;2.88;2.67;;;3.30;99.90;;;;;;4946983;28;20062;-75
2023/01/28 01:12:58;;;;;;;2.90;2.40;;;3.40;99.90;;;;;;4948089;28;20043;-75
2023/01/28 01:15:23;;;;;;;3.92;3.10;;;3.30;99.90;;;;;;4953060;28;20057;-75
2023/01/28 01:17:50;;;;;;;2.67;2.47;;;3.30;99.90;;;;;;4977127;28;20069;-75
2023/01/28 01:20:22;;;;;;;4.03;3.17;;;3.40;99.90;;;;;;4966074;28;20043;-75
2023/01/28 01:22:48;;;;;;;7.22;2.72;;;3.40;99.90;;;;;;4967499;28;20047;-75
2023/01/28 01:25:15;;;;;;;3.92;2.50;;;3.40;99.90;;;;;;4966277;28;20075;-74
2023/01/28 01:27:42;;;;;;;2.63;2.22;;;3.40;99.90;;;;;;4966700;28;20046;-74
2023/01/28 01:30:08;;;;;;;2.47;2.13;;;3.40;99.90;;;;;;4967047;28;20050;-74
2023/01/28 01:32:35;;;;;;;2.67;2.47;;;3.40;99.90;;;;;;4966573;28;20751;-75
2023/01/28 01:35:01;;;;;;;9.23;3.25;;;3.40;99.90;;;;;;4966090;28;20743;-75
2023/01/28 01:37:27;;;;;;;6.43;3.40;;;3.40;99.90;;;;;;4953070;28;20047;-75
2023/01/28 01:39:53;;;;;;;4.82;3.60;;;3.40;99.90;;;;;;4969352;28;20046;-75
2023/01/28 01:42:19;;;;;;;4.68;3.17;;;3.30;99.90;;;;;;4970884;28;20049;-75
2023/01/28 01:45:00;;;;;;;2.92;2.47;;;3.40;99.90;;;;;;4970143;28;20046;-74
2023/01/28 01:47:45;;;;;;;3.22;2.85;;;3.40;99.90;;;;;;4970046;28;20551;-75
2023/01/28 01:50:24;;;;;;;3.60;2.53;;;3.40;99.90;;;;;;4968957;28;20055;-75
2023/01/28 01:52:53;;;;;;;2.30;2.10;;;3.30;99.90;;;;;;5001996;28;20086;-75
2023/01/28 01:55:22;;;;;;;2.90;2.47;;;3.30;99.90;;;;;;4969457;28;20137;-75
2023/01/28 01:57:51;;;;;;;2.95;2.15;;;3.30;99.90;;;;;;5001737;28;20050;-74
2023/01/28 02:00:17;;;;;;;2.92;2.10;;;3.30;99.90;;;;;;4970409;28;20526;-75
2023/01/28 02:02:46;;;;;;;3.78;1.70;;;3.30;99.90;;;;;;4970076;28;20038;-74
2023/01/28 02:05:15;;;;;;;2.08;1.77;;;3.30;99.90;;;;;;4952738;28;20419;-74
2023/01/28 02:07:42;;;;;;;3.05;2.25;;;3.30;99.90;;;;;;4968910;28;20058;-75
2023/01/28 02:10:09;;;;;;;2.67;2.22;;;3.40;99.90;;;;;;4967621;28;20078;-74
2023/01/28 02:12:39;;;;;;;2.92;2.63;;;3.40;99.90;;;;;;4969752;28;20035;-75
2023/01/28 02:15:18;;;;;;;2.60;2.40;;;3.30;99.90;;;;;;4970140;28;20058;-75
2023/01/28 02:17:44;;;;;;;1.55;1.20;;;3.40;99.90;;;;;;4988930;28;20038;-75
2023/01/28 02:20:15;;;;;;;2.45;2.22;;;3.30;99.90;;;;;;4989274;28;20046;-75
2023/01/28 02:23:26;;;;;;;2.33;2.13;;;3.30;99.90;;;;;;4988673;28;20587;-75
2023/01/28 02:26:09;;;;;;;1.63;1.52;;;3.30;99.90;;;;;;4985207;28;20086;-75
2023/01/28 02:29:08;;;;;;;3.58;3.17;;;3.30;99.90;;;;;;4969424;28;20177;-75
2023/01/28 02:31:51;;;;;;;8.80;2.13;;;3.30;99.90;;;;;;4968064;28;20054;-75
2023/01/28 02:35:00;;;;;;;2.38;2.25;;;3.30;99.90;;;;;;4969925;28;20043;-74
2023/01/28 02:37:45;;;;;;;3.72;2.83;;;3.30;99.90;;;;;;4964298;28;20063;-75
2023/01/28 02:40:17;;;;;;;2.45;2.13;;;3.30;99.90;;;;;;4968313;28;20595;-75
2023/01/28 02:42:43;;;;;;;2.38;2.17;;;3.30;99.90;;;;;;5000205;28;20042;-74
2023/01/28 02:47:56;;;;;;;3.92;2.65;;;3.30;99.90;;;;;;4969101;28;20404;-74
2023/01/28 02:48:16;;;;;;;1.35;1.30;;;3.30;99.90;;;;;;4968245;28;20141;-75
2023/01/28 02:50:53;;;;;;;5.13;2.92;;;3.20;99.90;;;;;;4968666;28;20077;-75
2023/01/28 02:53:45;;;;;;;2.70;2.05;;;3.20;99.90;;;;;;4968621;28;20115;-75
2023/01/28 02:56:29;;;;;;;2.97;2.58;;;3.20;99.90;;;;;;4967383;28;20039;-75
2023/01/28 03:02:10;;;;;;;5.53;3.08;;;3.20;99.90;;;;;;4964060;28;20055;-75
2023/01/28 03:04:45;;;;;;;2.92;2.70;;;3.20;99.90;;;;;;4968524;28;20059;-75
2023/01/28 03:07:12;;;;;;;3.17;2.43;;;3.20;99.90;;;;;;4968455;28;20043;-75
2023/01/28 03:09:42;;;;;;;2.00;1.90;;;3.20;99.90;;;;;;4967925;28;20035;-74
2023/01/28 03:38:21;;;;;;;2.65;1.77;;;3.20;99.90;;;;;;4967866;28;20062;-74
2023/01/28 03:40:54;;;;;;;3.08;2.60;;;3.20;99.90;;;;;;4967852;28;20039;-75
2023/01/28 03:43:19;;;;;;;3.08;2.67;;;3.20;99.90;;;;;;4968468;28;20455;-74
2023/01/28 03:45:50;;;;;;;3.00;2.55;;;3.20;99.90;;;;;;4999368;28;20057;-75
2023/01/28 03:48:19;;;;;;;2.97;2.78;;;3.20;99.90;;;;;;4968357;28;20053;-74
2023/01/28 03:50:45;;;;;;;3.88;3.47;;;3.20;99.90;;;;;;4966772;28;20047;-74
2023/01/28 03:53:11;;;;;;;4.10;2.72;;;3.20;99.90;;;;;;4966074;28;20047;-74
2023/01/28 03:55:36;;;;;;;3.55;3.25;;;3.20;99.90;;;;;;4967583;28;20105;-74
2023/01/28 03:58:04;;;;;;;5.68;3.47;;;3.20;99.90;;;;;;4967635;28;20078;-75
2023/01/28 04:00:31;;;;;;;5.18;3.45;;;3.20;99.90;;;;;;4967599;28;20065;-75
2023/01/28 04:02:57;;;;;;;3.03;2.75;;;3.20;99.90;;;;;;4967979;28;20047;-75
2023/01/28 04:05:24;;;;;;;6.50;3.00;;;3.20;99.90;;;;;;4967769;28;20082;-75
2023/01/28 04:07:52;;;;;;;6.00;3.55;;;3.20;99.90;;;;;;4966777;28;20090;-75
2023/01/28 04:10:18;;;;;;;4.20;3.72;;;3.20;99.90;;;;;;4966478;28;20431;-76
2023/01/28 04:12:44;;;;;;;3.75;3.22;;;3.20;99.90;;;;;;4967437;28;20038;-76
2023/01/28 04:15:14;;;;;;;3.75;3.08;;;3.20;99.90;;;;;;4968824;28;20459;-76
2023/01/28 04:17:46;;;;;;;4.20;3.20;;;3.10;99.90;;;;;;4986777;28;20038;-76
2023/01/28 04:20:13;;;;;;;4.47;3.97;;;3.10;99.90;;;;;;4973530;28;20083;-76
2023/01/28 04:22:39;;;;;;;4.38;3.90;;;3.10;99.90;;;;;;4967415;28;20039;-76
2023/01/28 04:25:05;;;;;;;3.20;2.80;;;3.10;99.90;;;;;;4967106;28;20098;-77
2023/01/28 04:27:30;;;;;;;4.05;3.67;;;3.10;99.90;;;;;;4967404;28;20562;-76
2023/01/28 04:29:56;;;;;;;3.13;2.50;;;3.10;99.90;;;;;;4967270;28;20372;-77
2023/01/28 04:32:22;;;;;;;5.22;3.72;;;3.10;99.90;;;;;;4967328;28;20093;-76
2023/01/28 04:34:47;;;;;;;3.95;3.22;;;3.10;99.90;;;;;;4968039;28;20039;-77
2023/01/28 04:37:13;;;;;;;4.45;3.13;;;3.10;99.90;;;;;;4967457;28;20042;-76
2023/01/28 04:39:38;;;;;;;6.35;4.07;;;3.10;99.90;;;;;;4966330;28;20078;-76
2023/01/28 04:42:04;;;;;;;4.43;3.25;;;3.10;99.90;;;;;;4967594;28;20043;-77
2023/01/28 04:44:29;;;;;;;4.00;3.47;;;3.10;99.90;;;;;;4966780;28;20057;-76
2023/01/28 04:46:55;;;;;;;5.72;3.75;;;3.10;99.90;;;;;;4967664;28;20410;-76
2023/01/28 04:49:21;;;;;;;5.18;3.28;;;3.10;99.90;;;;;;4967033;28;20055;-76
2023/01/28 04:51:46;;;;;;;4.90;3.58;;;3.10;99.90;;;;;;4967618;28;20039;-76
2023/01/28 04:54:12;;;;;;;4.47;3.97;;;3.10;99.90;;;;;;4966429;28;20126;-76
2023/01/28 04:56:37;;;;;;;3.10;2.85;;;3.00;99.90;;;;;;4965557;28;20167;-76
2023/01/28 04:59:03;;;;;;;8.52;4.53;;;3.00;99.90;;;;;;4966988;28;20086;-76
2023/01/28 05:01:29;;;;;;;4.68;3.53;;;3.00;99.90;;;;;;4967114;28;20039;-76
2023/01/28 05:03:55;;;;;;;3.35;2.60;;;3.00;99.90;;;;;;4998525;28;20126;-76
2023/01/28 05:06:20;;;;;;;4.97;3.90;;;3.00;99.90;;;;;;4967374;28;20050;-76
2023/01/28 05:08:46;;;;;;;5.13;3.92;;;3.00;99.90;;;;;;4966633;28;20487;-76
2023/01/28 05:11:12;;;;;;;3.88;3.55;;;3.00;99.90;;;;;;4967758;28;20050;-76
2023/01/28 05:13:38;;;;;;;3.53;3.10;;;3.00;99.90;;;;;;4970239;28;20105;-76
2023/01/28 05:16:04;;;;;;;3.23;2.87;;;3.00;99.90;;;;;;4979650;28;20218;-76
2023/01/28 05:18:30;;;;;;;5.13;3.95;;;3.00;99.90;;;;;;4989850;28;20051;-76
2023/01/28 05:20:56;;;;;;;3.45;3.15;;;2.90;99.90;;;;;;4973149;28;20039;-76
2023/01/28 05:23:22;;;;;;;3.65;3.35;;;3.00;99.90;;;;;;4969560;28;20058;-77
2023/01/28 05:25:47;;;;;;;4.90;4.57;;;2.90;99.90;;;;;;4971243;28;20039;-76
2023/01/28 05:28:14;;;;;;;3.53;2.83;;;2.90;99.90;;;;;;5001869;28;20051;-76
2023/01/28 05:30:39;;;;;;;4.25;3.90;;;2.90;99.90;;;;;;4970354;28;20049;-76
2023/01/28 05:33:05;;;;;;;5.63;3.97;;;2.90;99.90;;;;;;5001873;28;20050;-76
2023/01/28 05:35:31;;;;;;;4.78;3.15;;;2.90;99.90;;;;;;4970427;28;20054;-76
2023/01/28 05:37:56;;;;;;;5.07;3.67;;;2.90;99.90;;;;;;4969604;28;20050;-76
2023/01/28 05:40:22;;;;;;;7.63;3.78;;;2.90;99.90;;;;;;4970182;28;20039;-76
2023/01/28 05:42:48;;;;;;;3.72;2.97;;;2.90;99.90;;;;;;4970563;28;20042;-76
2023/01/28 05:45:13;;;;;;;5.30;3.95;;;2.90;99.90;;;;;;4970596;28;20053;-76
2023/01/28 05:47:39;;;;;;;6.68;3.67;;;2.90;99.90;;;;;;5001399;28;20134;-76
2023/01/28 05:50:06;;;;;;;4.68;3.33;;;2.90;99.90;;;;;;5001347;28;20133;-76
2023/01/28 05:52:32;;;;;;;3.80;3.50;;;2.90;99.90;;;;;;4968745;28;20137;-76
2023/01/28 05:54:57;;;;;;;4.70;2.80;;;2.90;99.90;;;;;;4969440;28;20117;-76
2023/01/28 05:57:23;;;;;;;5.50;4.17;;;2.90;99.90;;;;;;4969760;28;20569;-76
2023/01/28 05:59:48;;;;;;;3.75;3.40;;;2.90;99.90;;;;;;4970396;28;20047;-76
2023/01/28 06:02:14;;;;;;;3.53;2.67;;;2.90;99.90;;;;;;4969868;28;20388;-76
2023/01/28 06:04:39;;;;;;;5.28;3.75;;;2.90;99.90;;;;;;4969792;28;20058;-76
2023/01/28 06:07:05;;;;;;;7.63;3.60;;;2.90;99.90;;;;;;4969903;28;20487;-76
2023/01/28 06:09:30;;;;;;;4.32;3.38;;;2.90;99.90;;;;;;4968929;28;20077;-76
2023/01/28 06:11:56;;;;;;;5.60;3.40;;;2.90;99.90;;;;;;4969696;28;20043;-76
2023/01/28 06:14:22;;;;;;;4.32;3.60;;;2.90;99.90;;;;;;4969371;28;20066;-76
2023/01/28 06:16:47;;;;;;;7.97;4.00;;;2.90;99.90;;;;;;4984789;28;20521;-76
2023/01/28 06:19:13;;;;;;;4.73;3.10;;;2.90;99.90;;;;;;4986279;28;20046;-76
2023/01/28 06:21:39;;;;;;;8.05;4.38;;;2.90;99.90;;;;;;4969266;28;20130;-76
2023/01/28 06:24:04;;;;;;;5.13;3.95;;;2.90;99.90;;;;;;4968736;28;20039;-76
2023/01/28 06:26:30;;;;;;;5.13;3.75;;;2.90;99.90;;;;;;4969231;28;20404;-76
2023/01/28 06:28:56;;;;;;;3.40;3.10;;;2.80;99.90;;;;;;4969784;28;20078;-76
2023/01/28 06:31:21;;;;;;;4.77;4.17;;;2.90;99.90;;;;;;4973615;28;20554;-76
2023/01/28 06:33:47;;;;;;;5.40;3.97;;;2.80;99.90;;;;;;4971566;28;20125;-76
2023/01/28 06:36:12;;;;;;;4.43;3.50;;;2.80;99.90;;;;;;4988282;28;20050;-76
2023/01/28 06:38:38;;;;;;;5.78;3.80;;;2.80;99.90;;;;;;4987765;28;20048;-76
2023/01/28 06:41:04;;;;;;;5.43;4.25;;;2.70;99.90;;;;;;4988689;28;20046;-76
2023/01/28 06:43:29;;;;;;;4.93;4.47;;;2.70;99.90;;;;;;4988761;28;20141;-76
2023/01/28 06:45:56;;;;;;;5.93;4.85;;;2.70;99.90;;;;;;4988551;28;20534;-77
2023/01/28 06:48:23;;;;;;;4.03;3.20;;;2.60;99.90;;;;;;4974244;28;20137;-76
2023/01/28 06:50:49;;;;;;;7.20;4.73;;;2.60;99.90;;;;;;4989089;28;20046;-76
2023/01/28 06:53:16;;;;;;;4.23;3.83;;;2.50;99.90;;;;;;4986729;28;20112;-76
2023/01/28 06:55:41;;;;;;;6.78;3.92;;;2.50;99.90;;;;;;4972968;28;20051;-76
2023/01/28 06:58:07;;;;;;;5.50;4.47;;;2.40;99.90;;;;;;4967709;28;20618;-76
2023/01/28 07:00:32;;;;;;;4.93;4.43;;;2.30;99.90;;;;;;4968646;28;20035;-76
2023/01/28 07:02:58;;;;;;;4.33;3.93;;;2.20;99.90;;;;;;4968892;28;20050;-76
2023/01/28 07:05:30;;;;;;;5.57;3.13;;;2.20;99.90;;;;;;4968726;28;20074;-76
2023/01/28 07:07:55;;;;;;;5.47;3.63;;;2.20;99.90;;;;;;4967781;28;20065;-76
2023/01/28 07:10:21;;;;;;;7.23;4.67;;;2.10;99.90;;;;;;4968694;28;20599;-77
2023/01/28 07:12:47;;;;;;;6.47;4.37;;;2.00;99.90;;;;;;4951549;28;20043;-76
2023/01/28 07:15:14;;;;;;;7.00;3.83;;;2.00;99.90;;;;;;4968248;28;20055;-76
2023/01/28 07:17:40;;;;;;;3.87;3.27;;;1.90;99.90;;;;;;4966933;28;20690;-76
2023/01/28 07:20:09;;;;;;;5.97;4.80;;;1.90;99.90;;;;;;4968102;28;20086;-76
2023/01/28 07:22:36;;;;;;;7.63;3.87;;;1.80;99.90;;;;;;4967611;28;20404;-76
2023/01/28 07:25:02;;;;;;;4.87;3.47;;;1.80;99.90;;;;;;4968601;28;20449;-76
2023/01/28 07:27:27;;;;;;;7.67;3.80;;;1.70;99.90;;;;;;4999417;28;20043;-76
2023/01/28 07:29:53;;;;;;;10.77;4.67;;;1.70;99.90;;;;;;4968455;28;20046;-76
2023/01/28 07:32:19;;;;;;;4.50;4.07;;;1.60;99.90;;;;;;4967704;28;20053;-76
2023/01/28 07:34:44;;;;;;;4.13;3.37;;;1.60;99.90;;;;;;4968371;28;20051;-76
2023/01/28 07:37:10;;;;;;;5.63;4.83;;;1.60;99.90;;;;;;4968200;28;20042;-76
2023/01/28 07:39:35;;;;;;;6.53;4.50;;;1.50;99.90;;;;;;4976718;28;20053;-78
2023/01/28 07:42:01;;;;;;;5.67;4.87;;;1.50;99.90;;;;;;4969909;28;20543;-76
2023/01/28 07:44:27;;;;;;;3.23;3.03;;;1.50;99.90;;;;;;4976875;28;20050;-77
2023/01/28 07:46:53;;;;;;;4.17;3.73;;;1.40;99.90;;;;;;4971143;28;20053;-76
2023/01/28 07:49:18;;;;;;;8.50;4.50;;;1.40;99.90;;;;;;4978565;28;20108;-76
2023/01/28 07:51:45;;;;;;;5.10;4.57;;;1.40;99.90;;;;;;4987316;28;20050;-76
2023/01/28 07:54:12;;;;;;;5.03;4.30;;;1.40;99.90;;;;;;4975758;28;20058;-76
2023/01/28 07:56:37;;;;;;;7.20;5.07;;;1.40;99.90;;;;;;4966008;28;20122;-80
2023/01/28 07:59:03;;;;;;;8.03;5.07;;;1.40;99.90;;;;;;4982280;28;20582;-79
2023/01/28 08:01:29;;;;;;;5.20;4.43;;;1.40;99.90;;;;;;4968089;28;20043;-78
2023/01/28 08:03:54;;;;;;;10.70;5.93;;;1.40;99.90;;;;;;4968305;28;20081;-78
2023/01/28 08:06:20;;;;;;;5.73;4.27;;;1.40;99.90;;;;;;4967398;28;20418;-77
2023/01/28 08:08:48;;;;;;;8.13;4.97;;;1.30;99.90;;;;;;4968942;28;20047;-75
2023/01/28 08:11:14;;;;;;;7.73;5.40;;;1.30;99.90;;;;;;4975994;28;20042;-75
2023/01/28 08:13:39;;;;;;;5.93;4.83;;;1.30;99.90;;;;;;4966291;28;21164;-74
2023/01/28 08:16:06;;;;;;;7.27;5.10;;;1.40;99.90;;;;;;4967036;28;20051;-75
2023/01/28 08:18:31;;;;;;;6.43;5.60;;;1.40;99.90;;;;;;4967096;28;20093;-74
2023/01/28 08:20:58;;;;;;;9.47;5.83;;;1.40;99.90;;;;;;4986386;28;20070;-74
2023/01/28 08:23:33;;;;;;;8.00;5.67;;;1.40;99.90;;;;;;4971657;28;20541;-79
2023/01/28 08:25:59;;;;;;;10.50;5.50;;;1.50;99.90;;;;;;4957377;28;20046;-73
2023/01/28 08:28:25;;;;;;;9.10;5.77;;;1.50;99.90;;;;;;4966701;28;20043;-75
2023/01/28 08:30:51;;;;;;;7.03;4.73;;;1.50;99.90;;;;;;4965439;28;20054;-75
2023/01/28 08:33:17;;;;;;;9.40;5.83;;;1.50;99.90;;;;;;4965184;28;20039;-74
2023/01/28 08:35:43;;;;;;;8.67;6.63;;;1.60;99.90;;;;;;4965347;28;20046;-74
2023/01/28 08:38:11;;;;;;;11.67;6.40;;;1.50;99.90;;;;;;4966115;28;20078;-74
2023/01/28 08:40:37;;;;;;;7.93;6.17;;;1.50;99.90;;;;;;4966578;28;20094;-75
2023/01/28 08:43:03;;;;;;;8.27;5.07;;;1.60;99.90;;;;;;4966980;28;20086;-74
2023/01/28 08:45:29;;;;;;;6.63;5.70;;;1.60;99.90;;;;;;4967367;28;20427;-75
2023/01/28 08:47:57;;;;;;;7.80;6.57;;;1.60;99.90;;;;;;4970837;28;20038;-75
2023/01/28 08:50:24;;;;;;;8.77;6.57;;;1.60;99.90;;;;;;4970498;28;20491;-75
2023/01/28 08:52:59;;;;;;;5.67;5.13;;;1.60;99.90;;;;;;4970124;28;20085;-75
2023/01/28 08:55:25;;;;;;;9.33;7.37;;;1.60;99.90;;;;;;4953193;28;20054;-75
2023/01/28 08:57:51;;;;;;;9.93;6.10;;;1.70;99.90;;;;;;4970713;28;20049;-75
2023/01/28 09:00:17;;;;;;;10.83;7.07;;;1.70;99.90;;;;;;4970818;28;20039;-74
2023/01/28 09:02:43;;;;;;;6.73;5.27;;;1.70;99.90;;;;;;4970224;28;20039;-74
2023/01/28 09:05:09;;;;;;;7.37;5.73;;;1.80;99.90;;;;;;4970493;28;20042;-74
2023/01/28 09:07:36;;;;;;;10.77;6.40;;;1.80;99.90;;;;;;4969403;28;20054;-74
2023/01/28 09:10:03;;;;;;;10.00;6.73;;;1.80;99.90;;;;;;4970610;28;20046;-74
2023/01/28 09:12:30;;;;;;;8.43;5.77;;;1.80;99.90;;;;;;4968018;28;20078;-74
2023/01/28 09:14:55;;;;;;;8.07;6.17;;;1.90;99.90;;;;;;4969598;28;20569;-74
2023/01/28 09:17:21;;;;;;;15.63;5.60;;;1.90;99.90;;;;;;4988982;28;20051;-76
2023/01/28 09:19:47;;;;;;;7.93;5.07;;;2.00;99.90;;;;;;4989927;28;20410;-74
2023/01/28 09:22:12;;;;;;;9.07;5.20;;;2.10;99.90;;;;;;4989112;28;20543;-74
2023/01/28 09:24:38;;;;;;;9.60;6.57;;;2.10;99.90;;;;;;5004608;28;20064;-74
2023/01/28 09:27:03;;;;;;;11.90;6.97;;;2.20;99.90;;;;;;4989674;28;20059;-74
2023/01/28 09:29:29;;;;;;;10.63;5.53;;;2.30;99.90;;;;;;4988156;28;20498;-74
2023/01/28 09:31:55;;;;;;;6.47;4.90;;;2.30;99.90;;;;;;4988056;28;20050;-74
2023/01/28 09:34:20;;;;;;;6.80;5.23;;;2.30;99.90;;;;;;4989654;28;20045;-76
2023/01/28 09:36:46;;;;;;;10.70;5.57;;;2.40;99.90;;;;;;4989589;28;20078;-74
2023/01/28 09:39:11;;;;;;;5.10;4.57;;;2.40;99.90;;;;;;4988532;28;20049;-74
2023/01/28 09:41:49;;;;;;;5.13;4.60;;;2.40;99.90;;;;;;4989129;28;20038;-74
2023/01/28 09:44:33;;;;;;;15.17;6.00;;;2.50;99.90;;;;;;4989152;28;20461;-74
2023/01/28 09:47:09;;;;;;;14.23;5.93;;;2.50;99.90;;;;;;4987706;28;20043;-75
2023/01/28 09:49:41;;;;;;;7.77;5.07;;;2.60;99.90;;;;;;4988923;28;20049;-74
2023/01/28 09:52:11;;;;;;;;;;;2.60;99.90;;;;;;4988617;28;20518;-75
2023/01/28 09:54:51;;;;;;;7.63;6.80;;;2.70;99.90;;;;;;4988790;28;19922;-75
2023/01/28 09:57:23;;;;;;;6.40;5.57;;;2.70;99.90;;;;;;4989070;28;20042;-74
2023/01/28 09:59:48;;;;;;;11.10;5.78;;;2.70;99.90;;;;;;4989484;28;20081;-74
2023/01/28 10:02:44;;;;;;;6.63;4.70;;;2.80;99.90;;;;;;4988883;28;20479;-74
2023/01/28 10:05:45;;;;;;;4.90;4.47;;;2.80;99.90;;;;;;4988478;28;20462;-75
2023/01/28 10:08:37;;;;;;;6.77;5.00;;;2.90;99.90;;;;;;4985749;28;20077;-74
2023/01/28 10:11:06;;;;;;;7.10;4.87;;;2.90;99.90;;;;;;4987780;28;20034;-74
2023/01/28 10:13:50;;;;;;;12.13;5.40;;;3.00;99.90;;;;;;4988705;28;20403;-74
2023/01/28 10:16:41;;;;;;;6.03;4.70;;;3.10;99.90;;;;;;4977435;28;20129;-75
2023/01/28 10:19:15;;;;;;;9.43;6.30;;;3.20;99.90;;;;;;4969141;28;20058;-74
2023/01/28 10:21:48;;;;;;;9.27;5.07;;;3.20;99.90;;;;;;4968606;28;20053;-74
2023/01/28 10:24:26;;;;;;;7.40;6.53;;;3.30;99.90;;;;;;4968419;28;20043;-74
2023/01/28 10:26:52;;;;;;;7.27;5.30;;;3.30;99.90;;;;;;4968103;28;20042;-75
2023/01/28 10:29:22;;;;;;;7.60;4.40;;;3.40;99.90;;;;;;4969159;28;20074;-74
2023/01/28 10:32:00;;;;;;;8.03;5.70;;;3.40;99.90;;;;;;4969518;28;20491;-74
2023/01/28 10:34:26;;;;;;;5.63;3.47;;;3.50;99.90;;;;;;4983534;28;20042;-75
2023/01/28 10:36:52;;;;;;;7.53;4.85;;;3.50;99.90;;;;;;4969018;28;20051;-75
2023/01/28 10:39:21;;;;;;;7.25;5.30;;;3.50;99.90;;;;;;4968372;28;20108;-74
2023/01/28 10:41:46;;;;;;;9.97;3.53;;;3.60;99.90;;;;;;4969249;28;20094;-74
2023/01/28 10:44:17;;;;;;;6.47;5.32;;;3.60;99.90;;;;;;4968793;28;20089;-74
2023/01/28 10:46:45;;;;;;;9.23;4.73;;;3.70;99.90;;;;;;4968357;28;20046;-74
2023/01/28 10:49:25;;;;;;;5.40;3.97;;;3.70;99.90;;;;;;4968673;28;20066;-74
2023/01/28 10:51:50;;;;;;;4.63;4.03;;;3.70;99.90;;;;;;4966566;28;20047;-76
2023/01/28 10:54:27;;;;;;;6.93;6.20;;;3.80;99.90;;;;;;4968870;28;20118;-74
2023/01/28 10:57:02;;;;;;;7.55;5.68;;;3.80;99.90;;;;;;4968383;28;20486;-75
2023/01/28 10:59:30;;;;;;;5.72;4.03;;;3.80;99.90;;;;;;4967898;28;20046;-75
2023/01/28 11:01:59;;;;;;;8.50;4.50;;;3.90;99.90;;;;;;4968549;28;20098;-75
2023/01/28 11:04:29;;;;;;;6.70;3.60;;;3.90;99.90;;;;;;4966896;28;20122;-75
2023/01/28 11:07:03;;;;;;;6.20;4.43;;;3.90;99.90;;;;;;4967398;28;20082;-75
2023/01/28 11:09:35;;;;;;;5.65;4.10;;;3.90;99.90;;;;;;4967002;28;20073;-75
2023/01/28 11:12:20;;;;;;;5.10;4.25;;;4.00;99.90;;;;;;4967968;28;20046;-75
2023/01/28 11:14:51;;;;;;;4.60;4.18;;;4.00;99.90;;;;;;4968207;28;20058;-74
2023/01/28 11:17:18;;;;;;;7.68;4.28;;;4.00;99.90;;;;;;4987019;28;20042;-74
2023/01/28 11:19:44;;;;;;;5.93;4.97;;;4.00;99.90;;;;;;4987201;28;20405;-74
2023/01/28 11:22:31;;;;;;;6.63;4.32;;;4.10;99.90;;;;;;4986469;28;20085;-74
2023/01/28 11:24:58;;;;;;;4.90;3.15;;;4.00;99.90;;;;;;4986015;28;20054;-74
2023/01/28 11:27:29;;;;;;;8.55;3.85;;;4.10;99.90;;;;;;4987357;28;20409;-74
2023/01/28 11:30:02;;;;;;;4.40;3.35;;;4.10;99.90;;;;;;4986214;28;20057;-75
2023/01/28 11:32:29;;;;;;;7.13;3.25;;;4.10;99.90;;;;;;4985991;28;20039;-74
2023/01/28 11:34:56;;;;;;;6.78;4.90;;;4.10;99.90;;;;;;4986143;28;20042;-74
2023/01/28 11:37:24;;;;;;;8.77;5.32;;;4.10;99.90;;;;;;4985899;28;20043;-75
2023/01/28 11:40:01;;;;;;;4.68;3.30;;;4.10;99.90;;;;;;4970027;28;20521;-74
2023/01/28 11:42:26;;;;;;;10.50;5.35;;;4.10;99.90;;;;;;4986822;28;20121;-74
2023/01/28 11:44:53;;;;;;;6.85;5.20;;;4.20;99.90;;;;;;4987107;28;20133;-75
2023/01/28 11:47:41;;;;;;;4.70;3.97;;;4.20;99.90;;;;;;4987029;28;20514;-74
2023/01/28 11:50:25;;;;;;;16.63;5.03;;;4.20;99.90;;;;;;4985651;28;20053;-74
2023/01/28 11:53:14;;;;;;;4.15;3.72;;;4.30;99.90;;;;;;4986074;28;20518;-75
2023/01/28 11:56:03;;;;;;;5.05;4.55;;;4.40;99.90;;;;;;4986532;28;20046;-74
2023/01/28 11:58:53;;;;;;;4.95;3.90;;;4.40;99.90;;;;;;4985235;28;20050;-74
2023/01/28 12:01:41;;;;;;;6.85;3.65;;;4.40;99.90;;;;;;4985836;28;20050;-74
2023/01/28 12:04:24;;;;;;;3.75;3.30;;;4.40;99.90;;;;;;4985418;28;20498;-74
2023/01/28 12:07:09;;;;;;;3.83;3.40;;;4.40;99.90;;;;;;4984897;28;20058;-74
2023/01/28 12:09:59;;;;;;;5.13;3.70;;;4.40;99.90;;;;;;4985944;28;20061;-74
2023/01/28 12:12:52;;;;;;;4.40;3.25;;;4.40;99.90;;;;;;4984665;28;20121;-75
2023/01/28 12:15:23;;;;;;;;;;;4.40;99.90;;;;;;4984213;28;20091;-74
2023/01/28 12:18:04;;;;;;;8.65;4.15;;;4.40;99.90;;;;;;4967213;28;19929;-74
2023/01/28 12:20:47;;;;;;;7.93;3.58;;;4.30;99.90;;;;;;4965311;28;20249;-74
2023/01/28 12:23:22;;;;;;;5.38;3.10;;;4.30;99.90;;;;;;4965917;28;20395;-74
2023/01/28 12:26:03;;;;;;;9.50;4.70;;;4.30;99.90;;;;;;4967162;28;20038;-75
2023/01/28 12:28:47;;;;;;;4.35;2.80;;;4.30;99.90;;;;;;4966375;28;20117;-74
2023/01/28 12:31:51;;;;;;;5.07;3.47;;;4.40;99.90;;;;;;4965608;28;20112;-74
2023/01/28 12:34:35;;;;;;;8.40;4.25;;;4.40;99.90;;;;;;4967271;28;20045;-74
2023/01/28 12:37:19;;;;;;;8.30;4.18;;;4.50;99.90;;;;;;4964502;28;20050;-74
2023/01/28 12:40:11;;;;;;;4.47;3.58;;;4.50;99.90;;;;;;4966167;28;20042;-75
2023/01/28 12:42:52;;;;;;;5.28;3.95;;;4.60;99.90;;;;;;4966457;28;20157;-74
2023/01/28 12:45:44;;;;;;;5.72;4.57;;;4.60;99.90;;;;;;4965953;28;20399;-74
2023/01/28 12:48:34;;;;;;;3.83;2.92;;;4.60;99.90;;;;;;4966728;28;20047;-74
2023/01/28 12:51:23;;;;;;;7.63;4.85;;;4.70;99.90;;;;;;4966493;28;20046;-74
2023/01/28 12:54:04;;;;;;;3.45;3.10;;;4.70;99.90;;;;;;4964023;28;20134;-75
2023/01/28 12:56:43;;;;;;;4.68;3.67;;;4.70;99.90;;;;;;4966424;28;20251;-75
2023/01/28 12:59:15;;;;;;;7.40;3.15;;;4.80;99.90;;;;;;4966236;28;20043;-74
2023/01/28 13:01:43;;;;;;;;;;;4.80;99.90;;;;;;4966514;28;20058;-74
2023/01/28 13:04:17;;;;;;;3.40;3.05;;;4.80;99.90;;;;;;4966498;28;19929;-74
2023/01/28 13:07:09;;;;;;;3.88;1.88;;;4.80;99.90;;;;;;4965272;28;20564;-74
2023/01/28 13:09:37;;;;;;;4.32;4.03;;;4.80;99.90;;;;;;4968139;28;20070;-75
2023/01/28 13:12:04;;;;;;;4.25;3.08;;;4.80;99.90;;;;;;4966335;28;20081;-74
2023/01/28 13:14:32;;;;;;;4.53;3.90;;;4.80;99.90;;;;;;4964675;28;20101;-74
2023/01/28 13:17:26;;;;;;;9.30;2.88;;;4.90;99.90;;;;;;4982064;28;20069;-75
2023/01/28 13:19:51;;;;;;;4.90;3.42;;;4.90;99.90;;;;;;4968344;28;20207;-76
2023/01/28 13:22:34;;;;;;;5.00;2.95;;;4.90;99.90;;;;;;5000214;28;20042;-75
2023/01/28 13:25:23;;;;;;;5.18;2.90;;;4.90;99.90;;;;;;4984354;28;20050;-75
2023/01/28 13:28:03;;;;;;;6.13;3.65;;;4.90;99.90;;;;;;4986271;28;20081;-74
2023/01/28 13:30:34;;;;;;;5.07;2.67;;;4.90;99.90;;;;;;4985335;28;20124;-75
2023/01/28 13:33:03;;;;;;;5.43;2.92;;;5.00;99.90;;;;;;4988770;28;20113;-75
2023/01/28 13:35:36;;;;;;;4.38;2.63;;;5.00;99.90;;;;;;4988802;28;20043;-75
2023/01/28 13:38:28;;;;;;;2.15;1.98;;;5.00;99.90;;;;;;4988536;28;20088;-74
2023/01/28 13:41:00;;;;;;;3.72;2.70;;;5.00;99.90;;;;;;4989459;28;20568;-75
2023/01/28 13:43:31;;;;;;;4.65;3.15;;;5.00;99.90;;;;;;4988533;28;20239;-75
2023/01/28 13:46:04;;;;;;;3.38;2.10;;;5.10;99.90;;;;;;4988991;28;20126;-75